sensor_id;sensor_type;location;lat;lon;timestamp;P1;durP1;ratioP1;P2;durP2;ratioP2
61338;SDS011;47213;52.362;4.606;2024-03-25T00:09:42;15.40;;;2.80;;
61338;SDS011;47213;52.362;4.606;2024-03-25T00:19:42;16.40;;;2.70;;
61338;SDS011;47213;52.362;4.606;2024-03-25T00:29:42;13.90;;;3.20;;
61338;SDS011;47213;52.362;4.606;2024-03-25T00:39:41;18.90;;;3.30;;
61338;SDS011;47213;52.362;4.606;2024-03-25T00:49:41;18.80;;;2.80;;
61338;SDS011;47213;52.362;4.606;2024-03-25T00:59:41;13.80;;;2.50;;
61338;SDS011;47213;52.362;4.606;2024-03-25T01:09:40;15.20;;;2.60;;
61338;SDS011;47213;52.362;4.606;2024-03-25T01:19:40;15.50;;;2.50;;
61338;SDS011;47213;52.362;4.606;2024-03-25T01:29:40;20.20;;;3.50;;
61338;SDS011;47213;52.362;4.606;2024-03-25T01:39:40;15.60;;;2.70;;
61338;SDS011;47213;52.362;4.606;2024-03-25T01:49:40;14.00;;;2.50;;
61338;SDS011;47213;52.362;4.606;2024-03-25T02:09:39;12.20;;;2.10;;
61338;SDS011;47213;52.362;4.606;2024-03-25T02:19:39;9.30;;;2.30;;
61338;SDS011;47213;52.362;4.606;2024-03-25T02:29:38;13.10;;;2.90;;
61338;SDS011;47213;52.362;4.606;2024-03-25T02:39:37;14.60;;;2.20;;
61338;SDS011;47213;52.362;4.606;2024-03-25T02:49:37;11.60;;;2.40;;
61338;SDS011;47213;52.362;4.606;2024-03-25T02:59:37;12.90;;;2.20;;
61338;SDS011;47213;52.362;4.606;2024-03-25T03:09:37;11.70;;;2.40;;
61338;SDS011;47213;52.362;4.606;2024-03-25T03:19:36;11.70;;;2.30;;
61338;SDS011;47213;52.362;4.606;2024-03-25T03:29:36;7.90;;;2.20;;
61338;SDS011;47213;52.362;4.606;2024-03-25T03:49:35;10.20;;;2.00;;
61338;SDS011;47213;52.362;4.606;2024-03-25T03:59:35;9.00;;;2.30;;
61338;SDS011;47213;52.362;4.606;2024-03-25T04:09:34;8.30;;;1.90;;
61338;SDS011;47213;52.362;4.606;2024-03-25T04:19:34;6.50;;;1.80;;
61338;SDS011;47213;52.362;4.606;2024-03-25T04:29:33;10.50;;;2.10;;
61338;SDS011;47213;52.362;4.606;2024-03-25T04:39:33;9.50;;;2.50;;
61338;SDS011;47213;52.362;4.606;2024-03-25T04:49:32;9.10;;;2.10;;
61338;SDS011;47213;52.362;4.606;2024-03-25T04:59:32;9.90;;;2.30;;
61338;SDS011;47213;52.362;4.606;2024-03-25T05:09:31;7.40;;;1.90;;
61338;SDS011;47213;52.362;4.606;2024-03-25T05:19:31;7.20;;;1.70;;
61338;SDS011;47213;52.362;4.606;2024-03-25T05:29:30;8.00;;;1.80;;
61338;SDS011;47213;52.362;4.606;2024-03-25T05:39:29;7.90;;;2.10;;
61338;SDS011;47213;52.362;4.606;2024-03-25T05:49:29;7.90;;;2.20;;
61338;SDS011;47213;52.362;4.606;2024-03-25T06:09:28;8.30;;;2.10;;
61338;SDS011;47213;52.362;4.606;2024-03-25T06:29:27;8.60;;;1.90;;
61338;SDS011;47213;52.362;4.606;2024-03-25T06:39:26;11.00;;;2.30;;
61338;SDS011;47213;52.362;4.606;2024-03-25T06:49:26;12.50;;;2.80;;
61338;SDS011;47213;52.362;4.606;2024-03-25T06:59:25;10.70;;;2.60;;
61338;SDS011;47213;52.362;4.606;2024-03-25T07:09:25;16.20;;;2.90;;
61338;SDS011;47213;52.362;4.606;2024-03-25T07:19:24;15.90;;;3.30;;
61338;SDS011;47213;52.362;4.606;2024-03-25T07:29:24;14.40;;;2.90;;
61338;SDS011;47213;52.362;4.606;2024-03-25T07:39:23;16.70;;;3.40;;
61338;SDS011;47213;52.362;4.606;2024-03-25T07:49:23;13.20;;;3.10;;
61338;SDS011;47213;52.362;4.606;2024-03-25T07:59:23;16.20;;;3.30;;
61338;SDS011;47213;52.362;4.606;2024-03-25T08:09:23;19.70;;;3.60;;
61338;SDS011;47213;52.362;4.606;2024-03-25T08:19:23;16.80;;;3.70;;
61338;SDS011;47213;52.362;4.606;2024-03-25T08:39:23;17.30;;;3.50;;
61338;SDS011;47213;52.362;4.606;2024-03-25T08:49:23;18.70;;;4.10;;
61338;SDS011;47213;52.362;4.606;2024-03-25T08:59:23;18.20;;;3.80;;
61338;SDS011;47213;52.362;4.606;2024-03-25T09:09:23;15.20;;;3.60;;
61338;SDS011;47213;52.362;4.606;2024-03-25T09:29:23;18.10;;;4.10;;
61338;SDS011;47213;52.362;4.606;2024-03-25T09:39:23;16.60;;;3.60;;
61338;SDS011;47213;52.362;4.606;2024-03-25T09:49:25;19.60;;;4.00;;
61338;SDS011;47213;52.362;4.606;2024-03-25T09:59:23;19.00;;;4.60;;
61338;SDS011;47213;52.362;4.606;2024-03-25T10:09:24;17.20;;;4.40;;
61338;SDS011;47213;52.362;4.606;2024-03-25T10:19:25;16.70;;;3.90;;
61338;SDS011;47213;52.362;4.606;2024-03-25T10:29:24;15.60;;;4.10;;
61338;SDS011;47213;52.362;4.606;2024-03-25T10:39:26;14.20;;;4.30;;
61338;SDS011;47213;52.362;4.606;2024-03-25T10:49:32;12.10;;;4.00;;
61338;SDS011;47213;52.362;4.606;2024-03-25T17:59:58;10.90;;;4.30;;
61338;SDS011;47213;52.362;4.606;2024-03-25T18:09:59;9.70;;;3.90;;
61338;SDS011;47213;52.362;4.606;2024-03-25T18:29:59;10.50;;;4.20;;
61338;SDS011;47213;52.362;4.606;2024-03-25T18:39:59;11.30;;;4.30;;
61338;SDS011;47213;52.362;4.606;2024-03-25T18:50:00;10.50;;;4.60;;
61338;SDS011;47213;52.362;4.606;2024-03-25T19:00:00;10.50;;;4.20;;
61338;SDS011;47213;52.362;4.606;2024-03-25T19:10:00;9.80;;;4.60;;
61338;SDS011;47213;52.362;4.606;2024-03-25T19:30:00;8.80;;;4.30;;
61338;SDS011;47213;52.362;4.606;2024-03-25T19:40:01;10.50;;;5.00;;
61338;SDS011;47213;52.362;4.606;2024-03-25T19:50:01;11.60;;;4.90;;
61338;SDS011;47213;52.362;4.606;2024-03-25T20:00:01;11.00;;;4.60;;
61338;SDS011;47213;52.362;4.606;2024-03-25T20:10:01;12.10;;;5.00;;
61338;SDS011;47213;52.362;4.606;2024-03-25T20:20:01;10.60;;;4.90;;
61338;SDS011;47213;52.362;4.606;2024-03-25T20:30:01;10.60;;;5.10;;
61338;SDS011;47213;52.362;4.606;2024-03-25T20:40:02;9.90;;;4.80;;
61338;SDS011;47213;52.362;4.606;2024-03-25T20:50:02;11.30;;;4.90;;
61338;SDS011;47213;52.362;4.606;2024-03-25T21:00:03;10.00;;;4.70;;
61338;SDS011;47213;52.362;4.606;2024-03-25T21:10:02;10.10;;;4.40;;
61338;SDS011;47213;52.362;4.606;2024-03-25T21:20:02;7.90;;;3.80;;
61338;SDS011;47213;52.362;4.606;2024-03-25T22:00:03;9.70;;;3.60;;
61338;SDS011;47213;52.362;4.606;2024-03-25T22:40:04;11.40;;;4.00;;
61338;SDS011;47213;52.362;4.606;2024-03-25T22:50:04;12.70;;;3.80;;
61338;SDS011;47213;52.362;4.606;2024-03-25T23:00:03;8.70;;;3.90;;
61338;SDS011;47213;52.362;4.606;2024-03-25T23:10:03;8.70;;;3.80;;
61338;SDS011;47213;52.362;4.606;2024-03-25T23:20:03;10.80;;;4.00;;
61338;SDS011;47213;52.362;4.606;2024-03-25T23:30:03;11.70;;;4.10;;
61338;SDS011;47213;52.362;4.606;2024-03-25T23:40:03;11.10;;;4.50;;
61338;SDS011;47213;52.362;4.606;2024-03-25T23:50:03;9.70;;;4.20;;
